Time;durP1;ratioP1;P1;durP2;ratioP2;P2;SDS_P1;SDS_P2;PMS_P1;PMS_P2;Temp;Humidity;BMP_temperature;BMP_pressure;BME280_temperature;BME280_humidity;BME280_pressure;Samples;Min_cycle;Max_cycle;Signal;HPM_P1;HPM_P2
2022/05/07 00:02:06;;;;;;;0.75;0.32;;;12.10;99.90;;;;;;5096671;28;20040;-79
2022/05/07 00:04:37;;;;;;;0.00;0.00;;;12.10;99.90;;;;;;5095925;28;20455;-78
2022/05/07 00:07:04;;;;;;;0.03;0.00;;;12.10;99.90;;;;;;5113378;28;20052;-78
2022/05/07 00:09:30;;;;;;;0.10;0.10;;;12.10;99.90;;;;;;5096381;28;20138;-79
2022/05/07 00:11:56;;;;;;;0.08;0.08;;;12.10;99.90;;;;;;5113338;28;20585;-79
2022/05/07 00:14:22;;;;;;;0.15;0.05;;;12.10;99.90;;;;;;5113190;28;20089;-79
2022/05/07 00:19:32;;;;;;;0.28;0.20;;;12.00;99.90;;;;;;5113219;28;20058;-79
2022/05/07 00:21:58;;;;;;;0.20;0.20;;;12.00;99.90;;;;;;5112903;28;20047;-79
2022/05/07 00:24:24;;;;;;;0.10;0.10;;;12.10;99.90;;;;;;5113603;28;20044;-78
2022/05/07 00:26:50;;;;;;;0.20;0.20;;;12.10;99.90;;;;;;5113424;28;20499;-78
2022/05/07 00:29:16;;;;;;;0.00;0.00;;;12.20;99.90;;;;;;5095823;28;20487;-78
2022/05/07 00:31:41;;;;;;;0.43;0.20;;;12.20;99.90;;;;;;5096598;28;20097;-79
2022/05/07 00:34:08;;;;;;;0.13;0.13;;;12.10;99.90;;;;;;5112980;28;20054;-79
2022/05/07 00:36:33;;;;;;;0.00;0.00;;;12.10;99.90;;;;;;5112732;28;20475;-78
2022/05/07 00:38:59;;;;;;;0.10;0.00;;;12.10;99.90;;;;;;5112669;28;20044;-79
2022/05/07 00:41:25;;;;;;;0.00;0.00;;;12.10;99.90;;;;;;5095999;28;20058;-78
2022/05/07 00:43:50;;;;;;;0.70;0.32;;;12.10;99.90;;;;;;5112513;28;20123;-79
2022/05/07 00:46:17;;;;;;;0.20;0.20;;;12.10;99.90;;;;;;5096065;28;20146;-78
2022/05/07 00:48:43;;;;;;;0.93;0.43;;;12.10;99.90;;;;;;5112931;28;20135;-78
2022/05/07 00:53:54;;;;;;;0.17;0.17;;;12.20;99.90;;;;;;5113273;28;20052;-78
2022/05/07 00:56:20;;;;;;;0.10;0.10;;;12.20;99.90;;;;;;5096258;28;20039;-79
2022/05/07 00:58:46;;;;;;;0.25;0.00;;;12.20;99.90;;;;;;5112835;28;20035;-78
2022/05/07 01:01:11;;;;;;;3.03;0.00;;;12.30;99.90;;;;;;5096029;28;20368;-79
2022/05/07 01:03:38;;;;;;;0.20;0.13;;;12.30;99.90;;;;;;5095647;28;20043;-79
2022/05/07 01:06:04;;;;;;;0.10;0.10;;;12.30;99.90;;;;;;5112193;28;20180;-79
2022/05/07 01:08:31;;;;;;;0.28;0.28;;;12.30;99.90;;;;;;5115884;28;20054;-79
2022/05/07 01:10:57;;;;;;;0.08;0.08;;;12.30;99.90;;;;;;5116571;28;20039;-79
2022/05/07 01:13:23;;;;;;;0.28;0.10;;;12.30;99.90;;;;;;5099557;28;20368;-79
2022/05/07 01:15:54;;;;;;;0.00;0.00;;;12.30;99.90;;;;;;5116425;28;20036;-79
2022/05/07 01:18:20;;;;;;;0.10;0.10;;;12.30;99.90;;;;;;5099454;28;20044;-79
2022/05/07 01:20:46;;;;;;;0.65;0.45;;;12.30;99.90;;;;;;5116522;28;20055;-79
2022/05/07 01:23:13;;;;;;;0.45;0.25;;;12.30;99.90;;;;;;5116169;28;20040;-79
2022/05/07 01:25:38;;;;;;;0.00;0.00;;;12.20;99.90;;;;;;5116276;28;20560;-79
2022/05/07 01:28:05;;;;;;;0.00;0.00;;;12.20;99.90;;;;;;5099196;28;20056;-78
2022/05/07 01:30:31;;;;;;;0.00;0.00;;;12.20;99.90;;;;;;5116601;28;20043;-79
2022/05/07 01:32:56;;;;;;;0.35;0.08;;;12.20;99.90;;;;;;5116139;28;20101;-79
2022/05/07 01:35:22;;;;;;;0.20;0.00;;;12.10;99.90;;;;;;5116174;28;20116;-79
2022/05/07 01:37:48;;;;;;;0.00;0.00;;;12.20;99.90;;;;;;5116180;28;20082;-79
2022/05/07 01:40:13;;;;;;;0.43;0.10;;;12.20;99.90;;;;;;5099047;28;20112;-79
2022/05/07 01:42:39;;;;;;;0.05;0.05;;;12.10;99.90;;;;;;5099259;28;20086;-79
2022/05/07 01:45:05;;;;;;;0.00;0.00;;;12.10;99.90;;;;;;5098867;28;20483;-79
2022/05/07 01:50:20;;;;;;;0.20;0.00;;;12.10;99.90;;;;;;5116008;28;20081;-79
2022/05/07 01:52:45;;;;;;;0.25;0.20;;;12.10;99.90;;;;;;5116322;28;20039;-79
2022/05/07 01:55:11;;;;;;;0.08;0.00;;;12.20;99.90;;;;;;5098694;28;20138;-79
2022/05/07 01:57:36;;;;;;;0.70;0.20;;;12.20;99.90;;;;;;5115377;28;20043;-79
2022/05/07 02:00:03;;;;;;;0.00;0.00;;;12.10;99.90;;;;;;5098406;28;20065;-80
2022/05/07 02:02:28;;;;;;;0.17;0.03;;;12.10;99.90;;;;;;5098024;28;20422;-79
2022/05/07 02:04:54;;;;;;;0.00;0.00;;;12.10;99.90;;;;;;5115266;28;20056;-79
2022/05/07 02:07:20;;;;;;;0.00;0.00;;;12.10;99.90;;;;;;5115438;28;20058;-80
2022/05/07 02:09:45;;;;;;;0.10;0.00;;;12.10;99.90;;;;;;5115546;28;20489;-79
2022/05/07 02:12:11;;;;;;;0.00;0.00;;;12.10;99.90;;;;;;5115495;28;20036;-80
2022/05/07 02:14:37;;;;;;;0.00;0.00;;;12.10;99.90;;;;;;5098146;28;20056;-79
2022/05/07 02:17:03;;;;;;;0.00;0.00;;;12.10;99.90;;;;;;5115920;28;20066;-79
2022/05/07 02:19:29;;;;;;;1.02;0.00;;;12.10;99.90;;;;;;5114261;28;20084;-79
2022/05/07 02:21:55;;;;;;;0.00;0.00;;;12.10;99.90;;;;;;5115149;28;20039;-79
2022/05/07 02:24:20;;;;;;;0.10;0.00;;;12.10;99.90;;;;;;5098088;28;20087;-79
2022/05/07 02:26:46;;;;;;;0.00;0.00;;;12.10;99.90;;;;;;5115069;28;20140;-79
2022/05/07 02:29:14;;;;;;;0.17;0.10;;;12.10;99.90;;;;;;5114886;28;20040;-79
2022/05/07 02:31:40;;;;;;;0.00;0.00;;;12.10;99.90;;;;;;5114960;28;20044;-79
2022/05/07 02:34:06;;;;;;;0.20;0.20;;;12.30;99.90;;;;;;5115029;28;20051;-79
2022/05/07 02:36:32;;;;;;;0.30;0.10;;;12.30;99.90;;;;;;5114879;28;20039;-79
2022/05/07 02:38:59;;;;;;;0.10;0.10;;;12.20;99.90;;;;;;5114964;28;20513;-79
2022/05/07 02:44:09;;;;;;;0.93;0.10;;;12.20;99.90;;;;;;5115145;28;20399;-79
2022/05/07 02:46:35;;;;;;;0.63;0.20;;;12.30;99.90;;;;;;5097964;28;20043;-79
2022/05/07 02:49:01;;;;;;;0.30;0.30;;;12.30;99.90;;;;;;5113737;28;20048;-79
2022/05/07 02:51:26;;;;;;;0.00;0.00;;;12.30;99.90;;;;;;5114731;28;20352;-79
2022/05/07 02:53:52;;;;;;;0.00;0.00;;;12.30;99.90;;;;;;5097711;28;20146;-80
2022/05/07 02:56:18;;;;;;;0.00;0.00;;;12.30;99.90;;;;;;5097061;28;20051;-79
2022/05/07 02:58:43;;;;;;;0.00;0.00;;;12.30;99.90;;;;;;5097792;28;20050;-79
2022/05/07 03:01:09;;;;;;;0.43;0.10;;;12.30;99.90;;;;;;5115030;28;20477;-79
2022/05/07 03:03:35;;;;;;;0.00;0.00;;;12.30;99.90;;;;;;5097435;28;20491;-79
2022/05/07 03:06:00;;;;;;;0.20;0.20;;;12.30;99.90;;;;;;5113808;28;20055;-79
2022/05/07 03:08:26;;;;;;;0.28;0.20;;;12.30;99.90;;;;;;5097267;28;20048;-79
2022/05/07 03:10:52;;;;;;;1.48;0.40;;;12.40;99.90;;;;;;5114154;28;20134;-79
2022/05/07 03:13:18;;;;;;;0.00;0.00;;;12.30;99.90;;;;;;5114230;28;20054;-79
2022/05/07 03:15:44;;;;;;;0.68;0.20;;;12.40;99.90;;;;;;5097180;28;20043;-79
2022/05/07 03:18:12;;;;;;;0.00;0.00;;;12.40;99.90;;;;;;5113822;28;20083;-79
2022/05/07 03:20:38;;;;;;;0.32;0.10;;;12.30;99.90;;;;;;5113401;28;20083;-78
2022/05/07 03:23:04;;;;;;;0.00;0.00;;;12.30;99.90;;;;;;5111880;28;20058;-78
2022/05/07 03:25:30;;;;;;;0.25;0.25;;;12.30;99.90;;;;;;5113563;28;20036;-79
2022/05/07 03:27:55;;;;;;;0.03;0.03;;;12.40;99.90;;;;;;5096764;28;20049;-79
2022/05/07 03:30:21;;;;;;;0.10;0.03;;;12.40;99.90;;;;;;5113550;28;20054;-79
2022/05/07 03:32:46;;;;;;;0.00;0.00;;;12.30;99.90;;;;;;5114138;28;20055;-79
2022/05/07 03:35:12;;;;;;;0.15;0.10;;;12.30;99.90;;;;;;5096633;28;20047;-79
2022/05/07 03:37:38;;;;;;;0.00;0.00;;;12.30;99.90;;;;;;5113979;28;20047;-79
2022/05/07 03:40:04;;;;;;;0.13;0.10;;;12.40;99.90;;;;;;5096989;28;20498;-79
2022/05/07 03:42:33;;;;;;;3.75;0.20;;;12.40;99.90;;;;;;5113700;28;20487;-79
2022/05/07 03:44:59;;;;;;;0.30;0.30;;;12.40;99.90;;;;;;5113524;28;20047;-78
2022/05/07 03:47:25;;;;;;;0.00;0.00;;;12.50;99.90;;;;;;5096647;28;20051;-79
2022/05/07 03:49:51;;;;;;;0.00;0.00;;;12.30;99.90;;;;;;5096771;28;20147;-79
2022/05/07 03:55:01;;;;;;;0.00;0.00;;;12.30;99.90;;;;;;5113736;28;20044;-79
2022/05/07 03:57:26;;;;;;;0.82;0.30;;;12.30;99.90;;;;;;5096385;28;20039;-79
2022/05/07 03:59:52;;;;;;;0.05;0.05;;;12.30;99.90;;;;;;5113198;28;20045;-79
2022/05/07 04:02:17;;;;;;;0.10;0.00;;;12.30;99.90;;;;;;5096551;28;20090;-79
2022/05/07 04:04:44;;;;;;;0.00;0.00;;;12.30;99.90;;;;;;5112808;28;20042;-79
2022/05/07 04:07:10;;;;;;;0.10;0.10;;;12.30;99.90;;;;;;5112860;28;20150;-78
2022/05/07 04:09:36;;;;;;;0.38;0.30;;;12.20;99.90;;;;;;5113014;28;20388;-79
2022/05/07 04:12:02;;;;;;;0.20;0.20;;;12.20;99.90;;;;;;5096694;28;20058;-79
2022/05/07 04:14:28;;;;;;;0.05;0.00;;;12.20;99.90;;;;;;5113196;28;20054;-79
2022/05/07 04:16:53;;;;;;;0.00;0.00;;;12.20;99.90;;;;;;5113064;28;20407;-79
2022/05/07 04:19:19;;;;;;;0.00;0.00;;;12.30;99.90;;;;;;5113321;28;20050;-79
2022/05/07 04:21:45;;;;;;;0.15;0.10;;;12.30;99.90;;;;;;5095928;28;20047;-79
2022/05/07 04:24:10;;;;;;;0.43;0.43;;;12.30;99.90;;;;;;5112812;28;20050;-79
2022/05/07 04:26:36;;;;;;;0.05;0.05;;;12.30;99.90;;;;;;5096222;28;20040;-80
2022/05/07 04:29:02;;;;;;;2.20;0.38;;;12.30;99.90;;;;;;5113042;28;20479;-80
2022/05/07 04:31:27;;;;;;;0.10;0.10;;;12.30;99.90;;;;;;5095935;28;20063;-79
2022/05/07 04:33:53;;;;;;;0.00;0.00;;;12.40;99.90;;;;;;5112352;28;20407;-79
2022/05/07 04:36:19;;;;;;;0.15;0.15;;;12.40;99.90;;;;;;5112896;28;20039;-80
2022/05/07 04:38:44;;;;;;;0.00;0.00;;;12.40;99.90;;;;;;5112891;28;20430;-79
2022/05/07 04:41:10;;;;;;;0.10;0.10;;;12.50;99.90;;;;;;5096031;28;20036;-80
2022/05/07 04:43:36;;;;;;;1.42;0.30;;;12.50;99.90;;;;;;5116508;28;20476;-80
2022/05/07 04:46:01;;;;;;;0.22;0.05;;;12.50;99.90;;;;;;5116849;28;20153;-79
2022/05/07 04:48:27;;;;;;;0.20;0.20;;;12.60;99.90;;;;;;5099914;28;20503;-80
2022/05/07 04:50:53;;;;;;;0.10;0.10;;;12.60;99.90;;;;;;5116974;28;20044;-79
2022/05/07 04:53:18;;;;;;;0.00;0.00;;;12.70;99.90;;;;;;5099950;28;20083;-79
2022/05/07 04:55:44;;;;;;;0.10;0.10;;;12.70;99.90;;;;;;5099978;28;20082;-80
2022/05/07 04:58:10;;;;;;;0.45;0.43;;;12.70;99.90;;;;;;5100174;28;20047;-79
2022/05/07 05:00:35;;;;;;;0.00;0.00;;;12.70;99.90;;;;;;5116954;28;20044;-80
2022/05/07 05:03:01;;;;;;;0.00;0.00;;;12.70;99.90;;;;;;5099719;28;20040;-79
2022/05/07 05:05:29;;;;;;;0.00;0.00;;;12.70;99.90;;;;;;5116184;28;20442;-80
2022/05/07 05:07:55;;;;;;;0.52;0.52;;;12.80;99.90;;;;;;5099849;28;20052;-80
2022/05/07 05:10:22;;;;;;;0.00;0.00;;;12.70;99.90;;;;;;5099577;28;20360;-80
2022/05/07 05:12:48;;;;;;;0.03;0.03;;;12.70;99.90;;;;;;5099348;28;20060;-80
2022/05/07 05:15:14;;;;;;;0.00;0.00;;;12.70;99.90;;;;;;5116926;28;20045;-79
2022/05/07 05:17:39;;;;;;;0.32;0.32;;;12.80;99.90;;;;;;5116457;28;20177;-79
2022/05/07 05:20:06;;;;;;;0.10;0.00;;;12.80;99.90;;;;;;5116398;28;20039;-80
2022/05/07 05:22:31;;;;;;;0.08;0.05;;;12.80;99.90;;;;;;5116196;28;20075;-80
2022/05/07 05:24:57;;;;;;;0.00;0.00;;;12.90;99.90;;;;;;5115963;28;20086;-79
2022/05/07 05:27:23;;;;;;;0.00;0.00;;;12.90;99.90;;;;;;5116414;28;20048;-79
2022/05/07 05:29:49;;;;;;;0.15;0.00;;;13.00;99.90;;;;;;5116309;28;20050;-79
2022/05/07 05:32:18;;;;;;;0.60;0.03;;;13.00;99.90;;;;;;5099464;28;20100;-80
2022/05/07 05:34:45;;;;;;;0.10;0.00;;;13.10;99.90;;;;;;5099164;28;20044;-79
2022/05/07 05:37:12;;;;;;;0.00;0.00;;;13.10;99.90;;;;;;5099217;28;20490;-79
2022/05/07 05:39:38;;;;;;;0.00;0.00;;;13.10;99.90;;;;;;5099229;28;20043;-80
2022/05/07 05:42:04;;;;;;;0.03;0.03;;;13.10;99.90;;;;;;5116035;28;20135;-80
2022/05/07 05:44:29;;;;;;;0.15;0.10;;;13.20;99.90;;;;;;5114811;28;20453;-79
2022/05/07 05:46:55;;;;;;;0.00;0.00;;;13.20;99.90;;;;;;5115583;28;20035;-79
2022/05/07 05:49:21;;;;;;;0.00;0.00;;;13.10;99.90;;;;;;5114985;28;20135;-80
2022/05/07 05:51:46;;;;;;;0.25;0.25;;;13.20;99.90;;;;;;5098881;28;20083;-79
2022/05/07 05:54:12;;;;;;;0.25;0.25;;;13.20;99.90;;;;;;5115570;28;20043;-80
2022/05/07 05:56:39;;;;;;;6.03;0.75;;;13.20;99.90;;;;;;5115904;28;20120;-80
2022/05/07 05:59:04;;;;;;;0.00;0.00;;;13.20;99.90;;;;;;5098629;28;20526;-80
2022/05/07 06:01:30;;;;;;;0.43;0.43;;;13.20;99.90;;;;;;5115692;28;20177;-79
2022/05/07 06:03:56;;;;;;;0.10;0.10;;;13.30;99.90;;;;;;5115285;28;20044;-79
2022/05/07 06:06:21;;;;;;;1.75;0.60;;;13.30;99.90;;;;;;5115052;28;20050;-79
2022/05/07 06:08:47;;;;;;;0.10;0.10;;;13.40;99.90;;;;;;5115454;28;20051;-79
2022/05/07 06:11:13;;;;;;;2.13;0.88;;;13.50;99.90;;;;;;5115745;28;20044;-80
2022/05/07 06:13:41;;;;;;;0.20;0.20;;;13.60;99.90;;;;;;5115256;28;20051;-79
2022/05/07 06:16:07;;;;;;;0.00;0.00;;;13.70;99.90;;;;;;5115497;28;20051;-79
2022/05/07 06:18:32;;;;;;;0.22;0.22;;;13.80;99.90;;;;;;5115402;28;20039;-79
2022/05/07 06:21:01;;;;;;;0.52;0.40;;;14.00;99.90;;;;;;5115011;28;20047;-79
2022/05/07 06:23:27;;;;;;;0.10;0.10;;;14.10;99.90;;;;;;5115229;28;20082;-79
2022/05/07 06:28:37;;;;;;;0.65;0.35;;;14.30;99.90;;;;;;5114831;28;20108;-80
2022/05/07 06:31:03;;;;;;;0.20;0.20;;;14.50;99.90;;;;;;5098365;28;20449;-80
2022/05/07 06:33:29;;;;;;;3.22;0.20;;;14.60;99.90;;;;;;5114952;28;20047;-79
2022/05/07 06:35:55;;;;;;;0.63;0.22;;;14.70;99.90;;;;;;5097906;28;20044;-80
2022/05/07 06:38:22;;;;;;;1.17;0.38;;;14.80;99.90;;;;;;5097701;28;20410;-79
2022/05/07 06:40:47;;;;;;;0.40;0.17;;;14.90;99.90;;;;;;5097651;28;20487;-80
2022/05/07 06:43:13;;;;;;;0.20;0.20;;;15.00;99.90;;;;;;5114797;28;20097;-80
2022/05/07 06:45:40;;;;;;;0.20;0.20;;;15.20;99.90;;;;;;5098291;28;20056;-80
2022/05/07 06:48:08;;;;;;;0.00;0.00;;;15.20;99.90;;;;;;5115172;28;20407;-79
2022/05/07 06:50:34;;;;;;;0.08;0.03;;;15.30;99.90;;;;;;5098360;28;20070;-80
2022/05/07 06:53:00;;;;;;;0.15;0.13;;;15.30;99.90;;;;;;5114657;28;20052;-80
2022/05/07 06:55:25;;;;;;;0.25;0.25;;;15.40;99.90;;;;;;5097538;28;20051;-80
2022/05/07 06:57:53;;;;;;;0.50;0.50;;;15.40;99.90;;;;;;5114404;28;20039;-80
2022/05/07 07:00:18;;;;;;;0.52;0.35;;;15.40;99.90;;;;;;5114403;28;20047;-80
2022/05/07 07:02:44;;;;;;;0.35;0.20;;;15.40;99.90;;;;;;5115128;28;20044;-80
2022/05/07 07:05:10;;;;;;;0.20;0.20;;;15.40;99.90;;;;;;5113557;28;20162;-79
2022/05/07 07:07:36;;;;;;;1.48;0.25;;;15.40;99.90;;;;;;5114307;28;20079;-80
2022/05/07 07:10:02;;;;;;;1.08;0.32;;;15.40;99.90;;;;;;5097176;28;20047;-80
2022/05/07 07:12:29;;;;;;;0.52;0.20;;;15.50;99.90;;;;;;5114070;28;20059;-80
2022/05/07 07:14:54;;;;;;;0.05;0.05;;;15.50;99.90;;;;;;5114466;28;20051;-80
2022/05/07 07:17:20;;;;;;;0.10;0.10;;;15.60;99.90;;;;;;5114804;28;20096;-80
2022/05/07 07:19:46;;;;;;;0.65;0.32;;;15.70;99.90;;;;;;5114073;28;20040;-80
2022/05/07 07:22:13;;;;;;;0.15;0.10;;;15.80;99.90;;;;;;5114143;28;20066;-80
2022/05/07 07:24:38;;;;;;;0.75;0.28;;;15.80;99.90;;;;;;5096741;28;20560;-80
2022/05/07 07:27:05;;;;;;;0.00;0.00;;;16.00;99.90;;;;;;5113859;28;20051;-80
2022/05/07 07:29:31;;;;;;;0.30;0.25;;;16.10;99.90;;;;;;5113831;28;20051;-80
2022/05/07 07:31:56;;;;;;;0.00;0.00;;;16.10;99.90;;;;;;5113667;28;20088;-80
2022/05/07 07:34:22;;;;;;;0.32;0.10;;;16.20;99.90;;;;;;5113992;28;20052;-80
2022/05/07 07:36:52;;;;;;;0.03;0.03;;;16.20;99.90;;;;;;5096838;28;20051;-80
2022/05/07 07:39:19;;;;;;;0.38;0.38;;;16.30;99.90;;;;;;5113714;28;20497;-80
2022/05/07 07:41:45;;;;;;;0.35;0.25;;;16.40;99.90;;;;;;5113848;28;20078;-80
2022/05/07 07:44:11;;;;;;;0.50;0.38;;;16.50;99.90;;;;;;5096482;28;20135;-80
2022/05/07 07:49:21;;;;;;;0.15;0.15;;;16.60;99.90;;;;;;5113804;28;20082;-81
2022/05/07 07:51:48;;;;;;;0.00;0.00;;;16.60;99.90;;;;;;5113763;28;20043;-80
2022/05/07 07:54:14;;;;;;;0.10;0.10;;;16.60;99.90;;;;;;5113341;28;20550;-80
2022/05/07 07:56:42;;;;;;;0.57;0.30;;;16.70;99.90;;;;;;5113621;28;20518;-80
2022/05/07 07:59:09;;;;;;;2.70;0.57;;;16.70;99.90;;;;;;5113497;28;20127;-80
2022/05/07 08:01:34;;;;;;;0.95;0.52;;;16.60;99.90;;;;;;5113604;28;20487;-81
2022/05/07 08:04:00;;;;;;;0.20;0.10;;;16.60;99.90;;;;;;5096105;28;20046;-81
2022/05/07 08:06:26;;;;;;;0.03;0.03;;;16.50;99.90;;;;;;5095786;28;20055;-80
2022/05/07 08:11:41;;;;;;;0.17;0.10;;;16.70;99.90;;;;;;5113850;28;20047;-80
2022/05/07 08:14:08;;;;;;;0.20;0.20;;;16.80;99.90;;;;;;5096565;28;20058;-80
2022/05/07 08:16:34;;;;;;;0.10;0.10;;;16.80;99.90;;;;;;5095044;28;20479;-80
2022/05/07 08:19:00;;;;;;;0.32;0.32;;;17.10;99.90;;;;;;5113218;28;20044;-80
2022/05/07 08:21:26;;;;;;;0.47;0.38;;;17.30;99.90;;;;;;5113320;28;20068;-80
2022/05/07 08:23:52;;;;;;;0.25;0.25;;;17.40;99.90;;;;;;5095565;28;20047;-81
2022/05/07 08:26:18;;;;;;;0.10;0.05;;;17.60;99.90;;;;;;5113121;28;20475;-81
2022/05/07 08:28:44;;;;;;;2.60;0.40;;;17.60;99.90;;;;;;5096290;28;20089;-80
2022/05/07 08:31:11;;;;;;;0.52;0.52;;;17.60;99.90;;;;;;5113034;28;20050;-81
2022/05/07 08:33:40;;;;;;;0.30;0.30;;;17.60;99.90;;;;;;5112937;28;20481;-81
2022/05/07 08:36:05;;;;;;;1.08;1.08;;;17.60;99.90;;;;;;5096133;28;20051;-81
2022/05/07 08:38:31;;;;;;;0.75;0.25;;;17.70;99.90;;;;;;5095824;28;20067;-81
2022/05/07 08:41:00;;;;;;;0.03;0.03;;;17.80;99.90;;;;;;5113228;28;20090;-81
2022/05/07 08:43:30;;;;;;;0.93;0.28;;;17.90;99.90;;;;;;5113247;28;20039;-81
2022/05/07 08:45:57;;;;;;;0.20;0.20;;;18.00;99.90;;;;;;5096266;28;20395;-82
2022/05/07 08:48:23;;;;;;;0.50;0.50;;;18.00;99.90;;;;;;5112871;28;20494;-82
2022/05/07 08:50:51;;;;;;;0.65;0.13;;;18.10;99.90;;;;;;5096156;28;20051;-82
2022/05/07 08:53:17;;;;;;;0.75;0.75;;;18.30;99.90;;;;;;5112881;28;20059;-81
2022/05/07 08:55:43;;;;;;;0.20;0.20;;;18.50;99.90;;;;;;5112942;28;20047;-82
2022/05/07 08:58:10;;;;;;;1.75;0.00;;;18.60;99.90;;;;;;5112124;28;20083;-82
2022/05/07 09:00:38;;;;;;;0.30;0.30;;;18.70;99.90;;;;;;5112706;28;20048;-81
2022/05/07 09:03:03;;;;;;;0.20;0.20;;;18.80;99.90;;;;;;5112704;28;20046;-81
2022/05/07 09:05:36;;;;;;;0.15;0.15;;;19.00;99.90;;;;;;5095348;28;20051;-81
2022/05/07 09:08:03;;;;;;;0.20;0.20;;;19.20;99.90;;;;;;5112905;28;20446;-81
2022/05/07 09:10:40;;;;;;;0.68;0.50;;;19.40;99.90;;;;;;5095590;28;20487;-81
2022/05/07 09:13:15;;;;;;;0.10;0.10;;;19.60;99.90;;;;;;5096082;28;20055;-81
2022/05/07 09:15:58;;;;;;;0.20;0.10;;;19.50;99.90;;;;;;5112696;28;20090;-81
2022/05/07 09:18:26;;;;;;;0.43;0.10;;;19.70;99.90;;;;;;5112315;28;20398;-81
2022/05/07 09:21:16;;;;;;;0.60;0.22;;;19.70;99.90;;;;;;5112012;28;20480;-81
2022/05/07 09:24:03;;;;;;;0.40;0.32;;;19.80;99.90;;;;;;5095370;28;20039;-80
2022/05/07 09:26:30;;;;;;;0.98;0.88;;;19.90;99.90;;;;;;5112588;28;20098;-82
2022/05/07 09:28:57;;;;;;;0.00;0.00;;;20.10;99.50;;;;;;5097472;28;20051;-81
2022/05/07 09:31:26;;;;;;;0.03;0.03;;;20.40;98.90;;;;;;5115804;28;20047;-81
2022/05/07 09:35:47;;;;;;;0.20;0.20;;;20.50;98.80;;;;;;5099224;28;20054;-81
2022/05/07 09:36:42;;;;;;;0.30;0.30;;;20.60;98.70;;;;;;5116238;28;20052;-81
2022/05/07 09:39:11;;;;;;;0.20;0.20;;;20.70;97.30;;;;;;5116103;28;20051;-80
2022/05/07 09:41:38;;;;;;;1.63;0.90;;;20.80;97.40;;;;;;5115670;28;20488;-81
2022/05/07 09:44:04;;;;;;;0.15;0.15;;;20.90;97.70;;;;;;5098590;28;20089;-81
2022/05/07 09:46:32;;;;;;;0.73;0.43;;;20.80;97.00;;;;;;5098558;28;20040;-80
2022/05/07 09:49:00;;;;;;;0.47;0.30;;;20.70;97.50;;;;;;5115764;28;20093;-81
2022/05/07 09:51:28;;;;;;;0.00;0.00;;;20.50;96.40;;;;;;5098788;28;20097;-80
2022/05/07 09:59:22;;;;;;;0.17;0.17;;;20.50;97.00;;;;;;5115896;28;20211;-80
2022/05/07 10:01:51;;;;;;;1.33;0.60;;;20.60;96.70;;;;;;5115836;28;20528;-80
2022/05/07 10:04:32;;;;;;;0.08;0.08;;;20.70;97.70;;;;;;5099041;28;20044;-81
2022/05/07 10:07:25;;;;;;;0.43;0.40;;;21.00;96.70;;;;;;5098404;28;20066;-81
2022/05/07 10:10:18;;;;;;;0.10;0.10;;;21.50;97.80;;;;;;5098567;28;20450;-81
2022/05/07 10:12:46;;;;;;;0.82;0.77;;;22.00;96.70;;;;;;5098691;28;20047;-81
2022/05/07 10:15:15;;;;;;;1.60;0.52;;;22.50;95.10;;;;;;5115469;28;20040;-81
2022/05/07 10:17:44;;;;;;;0.10;0.10;;;22.80;95.30;;;;;;5115481;28;20039;-81
2022/05/07 10:20:12;;;;;;;0.08;0.00;;;23.20;95.40;;;;;;5115538;28;20040;-81
2022/05/07 10:22:38;;;;;;;0.13;0.13;;;23.50;94.40;;;;;;5115402;28;20058;-81
2022/05/07 10:25:11;;;;;;;0.55;0.38;;;23.60;92.90;;;;;;5098178;28;20035;-81
2022/05/07 10:27:41;;;;;;;0.30;0.30;;;23.70;91.80;;;;;;5099145;28;20051;-81
2022/05/07 10:30:15;;;;;;;0.52;0.52;;;23.80;92.60;;;;;;5098334;28;20108;-81
2022/05/07 10:33:01;;;;;;;1.60;1.02;;;23.50;91.50;;;;;;5097960;28;20094;-80
2022/05/07 10:35:40;;;;;;;1.63;0.82;;;23.10;91.60;;;;;;5098463;28;20047;-80
2022/05/07 10:38:36;;;;;;;0.10;0.10;;;22.80;92.20;;;;;;5098510;28;20066;-80
2022/05/07 10:41:17;;;;;;;0.47;0.47;;;22.50;91.60;;;;;;5096958;28;20083;-81
2022/05/07 10:44:00;;;;;;;0.28;0.28;;;22.20;92.40;;;;;;5114934;28;20096;-81
2022/05/07 10:46:38;;;;;;;1.85;1.13;;;22.10;92.70;;;;;;5098087;28;20134;-81
2022/05/07 10:49:04;;;;;;;0.20;0.20;;;21.80;92.60;;;;;;5115186;28;20048;-80
2022/05/07 10:51:56;;;;;;;0.50;0.32;;;21.70;93.70;;;;;;5114763;28;20036;-81
2022/05/07 10:54:23;;;;;;;0.25;0.25;;;21.50;93.80;;;;;;5098474;28;20388;-81
2022/05/07 10:56:52;;;;;;;1.75;0.50;;;21.60;94.50;;;;;;5098004;28;20059;-82
2022/05/07 10:59:19;;;;;;;1.38;0.70;;;21.60;93.50;;;;;;5097495;28;20105;-81
2022/05/07 11:01:45;;;;;;;0.40;0.30;;;21.50;92.90;;;;;;5114459;28;20383;-80
2022/05/07 11:04:13;;;;;;;1.73;0.47;;;21.60;93.90;;;;;;5114903;28;20055;-80
2022/05/07 11:06:51;;;;;;;0.25;0.25;;;21.60;94.00;;;;;;5097215;28;20142;-81
2022/05/07 11:09:21;;;;;;;0.30;0.15;;;21.70;94.00;;;;;;5114546;28;20411;-80
2022/05/07 11:11:51;;;;;;;0.77;0.32;;;21.60;93.10;;;;;;5097474;28;20039;-81
2022/05/07 11:14:24;;;;;;;0.35;0.35;;;21.60;93.00;;;;;;5098225;28;20142;-81
2022/05/07 11:16:55;;;;;;;0.68;0.68;;;21.60;93.40;;;;;;5097649;28;20096;-80
2022/05/07 11:19:30;;;;;;;2.58;0.85;;;21.70;93.50;;;;;;5114427;28;20055;-80
2022/05/07 11:21:59;;;;;;;0.32;0.20;;;21.80;94.20;;;;;;5097287;28;20051;-81
2022/05/07 11:24:25;;;;;;;0.45;0.22;;;21.90;93.50;;;;;;5113920;28;20048;-80
2022/05/07 11:26:56;;;;;;;1.20;0.65;;;21.90;94.30;;;;;;5114030;28;20054;-80
2022/05/07 11:29:23;;;;;;;1.58;0.70;;;22.10;93.50;;;;;;5097753;28;20050;-80
2022/05/07 11:32:04;;;;;;;0.80;0.30;;;22.10;93.30;;;;;;5097672;28;20085;-80
2022/05/07 11:34:34;;;;;;;0.10;0.10;;;22.10;93.30;;;;;;5097421;28;20052;-80
2022/05/07 11:37:12;;;;;;;0.60;0.47;;;22.00;94.00;;;;;;5114066;28;20133;-80
2022/05/07 11:39:57;;;;;;;0.52;0.30;;;21.90;93.00;;;;;;5096900;28;20057;-80
2022/05/07 11:42:35;;;;;;;0.20;0.20;;;21.80;92.80;;;;;;5096765;28;20429;-80
2022/05/07 11:45:26;;;;;;;1.40;0.73;;;21.80;93.20;;;;;;5113256;28;20058;-80
2022/05/07 11:47:58;;;;;;;0.22;0.22;;;21.80;93.60;;;;;;5097548;28;20055;-80
2022/05/07 11:50:30;;;;;;;0.00;0.00;;;21.70;93.20;;;;;;5113559;28;20039;-81
2022/05/07 11:52:56;;;;;;;0.28;0.28;;;21.70;94.40;;;;;;5096644;28;20051;-81
2022/05/07 11:55:27;;;;;;;0.32;0.32;;;21.70;94.00;;;;;;5096647;28;20063;-81
2022/05/07 11:57:54;;;;;;;1.52;1.00;;;21.70;93.70;;;;;;5113559;28;20041;-81
2022/05/07 12:00:22;;;;;;;1.42;0.17;;;21.60;92.70;;;;;;5113753;28;20050;-81
2022/05/07 12:03:15;;;;;;;0.38;0.38;;;21.70;94.70;;;;;;5096781;28;20443;-81
2022/05/07 12:05:46;;;;;;;0.10;0.10;;;21.60;92.00;;;;;;5054223;28;20603;-81
2022/05/07 12:08:15;;;;;;;0.10;0.10;;;21.50;92.60;;;;;;5055362;28;20051;-81
2022/05/07 12:10:42;;;;;;;0.10;0.10;;;21.50;92.40;;;;;;5055198;28;20060;-81
2022/05/07 12:13:08;;;;;;;0.15;0.15;;;21.50;93.90;;;;;;5054953;28;20052;-81
2022/05/07 12:18:22;;;;;;;0.20;0.20;;;21.60;94.30;;;;;;5055137;28;20476;-81
2022/05/07 12:20:48;;;;;;;0.08;0.08;;;21.60;93.30;;;;;;5055219;28;20553;-81
2022/05/07 12:31:27;;;;;;;0.65;0.65;;;21.60;93.00;;;;;;5055237;28;20525;-81
2022/05/07 12:33:53;;;;;;;0.40;0.40;;;21.60;93.30;;;;;;5054681;28;20060;-81
2022/05/07 12:36:19;;;;;;;0.63;0.20;;;21.50;92.30;;;;;;5037750;28;20049;-81
2022/05/07 12:38:45;;;;;;;0.10;0.10;;;21.40;92.20;;;;;;5054988;28;20050;-81
2022/05/07 12:41:10;;;;;;;0.20;0.00;;;21.50;92.60;;;;;;5054933;28;20040;-81
2022/05/07 12:43:36;;;;;;;0.15;0.15;;;21.60;94.20;;;;;;5111029;28;20043;-81
2022/05/07 12:46:02;;;;;;;0.00;0.00;;;21.60;92.60;;;;;;5112858;28;20039;-80
2022/05/07 12:48:28;;;;;;;0.30;0.20;;;21.60;92.60;;;;;;5113277;28;20059;-81
2022/05/07 12:50:54;;;;;;;0.00;0.00;;;21.60;92.10;;;;;;5095966;28;20112;-81
2022/05/07 12:53:20;;;;;;;1.85;0.50;;;21.60;92.60;;;;;;5096455;28;20056;-81
2022/05/07 12:55:46;;;;;;;0.30;0.30;;;21.50;91.80;;;;;;5113283;28;20047;-81
2022/05/07 12:58:13;;;;;;;0.10;0.10;;;21.50;91.90;;;;;;5113055;28;20108;-81
2022/05/07 13:00:40;;;;;;;0.20;0.20;;;21.40;91.40;;;;;;5113017;28;20036;-81
2022/05/07 13:03:09;;;;;;;0.20;0.20;;;21.40;91.70;;;;;;5097096;28;20043;-80
2022/05/07 13:05:36;;;;;;;0.73;0.73;;;21.50;92.30;;;;;;5115911;28;20102;-80
2022/05/07 13:08:06;;;;;;;0.15;0.10;;;21.60;91.40;;;;;;5117026;28;20055;-81
2022/05/07 13:10:33;;;;;;;0.30;0.30;;;21.90;93.80;;;;;;5099624;28;20088;-80
2022/05/07 13:13:01;;;;;;;0.10;0.00;;;22.10;90.90;;;;;;5099487;28;20429;-81
2022/05/07 13:15:28;;;;;;;0.30;0.30;;;22.30;91.20;;;;;;5099748;28;20055;-81
2022/05/07 13:17:59;;;;;;;0.13;0.13;;;22.50;90.90;;;;;;5116824;28;20127;-81
2022/05/07 13:20:28;;;;;;;0.65;0.40;;;22.50;90.40;;;;;;5116705;28;20043;-81
2022/05/07 13:22:55;;;;;;;0.03;0.03;;;22.40;90.90;;;;;;5099152;28;20077;-81
2022/05/07 13:25:22;;;;;;;0.20;0.10;;;22.60;91.10;;;;;;5099285;28;20051;-80
2022/05/07 13:27:49;;;;;;;0.60;0.60;;;22.80;90.40;;;;;;5099098;28;20097;-80
2022/05/07 13:30:15;;;;;;;0.65;0.30;;;22.90;89.10;;;;;;5099313;28;20065;-80